createdAt,value
2022-11-16T00:01:50.936Z,48.28
2022-11-16T00:04:18.719Z,49.38
2022-11-16T00:06:46.917Z,50.47
2022-11-16T00:09:23.734Z,56.05
2022-11-16T00:12:01.802Z,47.80
2022-11-16T00:14:32.260Z,54.47
2022-11-16T00:19:28.365Z,54.45
2022-11-16T00:21:56.248Z,57.30
2022-11-16T00:24:24.389Z,57.38
2022-11-16T00:26:56.536Z,54.42
2022-11-16T00:29:26.100Z,60.92
2022-11-16T00:31:54.862Z,59.50
2022-11-16T00:34:23.510Z,57.35
2022-11-16T00:36:51.525Z,51.58
2022-11-16T00:39:20.160Z,56.50
2022-11-16T00:41:49.436Z,55.05
2022-11-16T00:44:18.852Z,58.75
2022-11-16T00:46:46.759Z,55.78
2022-11-16T00:49:14.417Z,48.78
2022-11-16T00:51:42.433Z,56.80
2022-11-16T00:54:10.466Z,50.08
2022-11-16T00:56:39.329Z,47.10
2022-11-16T00:59:07.428Z,55.15
2022-11-16T01:01:35.342Z,57.72
2022-11-16T01:04:02.829Z,49.13
2022-11-16T01:06:30.355Z,57.40
2022-11-16T01:08:57.872Z,61.15
2022-11-16T01:11:43.883Z,52.53
2022-11-16T01:14:11.542Z,50.60
2022-11-16T01:16:39.177Z,50.65
2022-11-16T01:19:06.789Z,60.50
2022-11-16T01:21:34.871Z,56.55
2022-11-16T01:24:02.669Z,56.25
2022-11-16T01:26:30.444Z,67.80
2022-11-16T01:28:59.847Z,63.25
2022-11-16T01:31:31.231Z,60.10
2022-11-16T01:34:00.937Z,57.35
2022-11-16T01:36:30.116Z,49.80
2022-11-16T01:38:59.964Z,49.72
2022-11-16T01:41:30.719Z,54.47
2022-11-16T01:44:03.607Z,48.92
2022-11-16T01:46:43.123Z,51.72
2022-11-16T01:49:18.065Z,57.33
2022-11-16T01:51:51.520Z,47.50
2022-11-16T01:54:19.594Z,53.55
2022-11-16T01:56:57.506Z,46.72
2022-11-16T01:59:32.559Z,45.58
2022-11-16T02:02:01.140Z,41.75
2022-11-16T02:04:30.036Z,45.60
2022-11-16T02:08:00.741Z,41.67
2022-11-16T02:10:34.988Z,40.13
2022-11-16T02:13:32.563Z,48.10
2022-11-16T02:16:18.594Z,48.15
2022-11-16T02:18:46.119Z,38.55
2022-11-16T02:21:35.479Z,42.65
2022-11-16T02:24:05.484Z,45.50
2022-11-16T02:26:48.012Z,37.40
2022-11-16T02:29:21.159Z,37.10
2022-11-16T02:32:11.477Z,36.13
2022-11-16T02:34:45.390Z,45.17
2022-11-16T02:37:17.323Z,53.65
2022-11-16T02:39:48.547Z,51.05
2022-11-16T02:42:30.203Z,47.03
2022-11-16T02:45:00.097Z,49.22
2022-11-16T02:47:33.552Z,49.95
2022-11-16T02:50:23.652Z,55.72
2022-11-16T02:52:53.599Z,52.55
2022-11-16T02:55:21.946Z,50.28
2022-11-16T02:57:57.649Z,47.55
2022-11-16T03:00:59.877Z,46.42
2022-11-16T03:03:51.167Z,50.25
2022-11-16T03:06:31.666Z,42.80
2022-11-16T03:09:12.548Z,43.95
2022-11-16T03:11:59.816Z,38.30
2022-11-16T03:14:33.825Z,46.63
2022-11-16T03:17:03.849Z,38.85
2022-11-16T03:19:52.038Z,39.17
2022-11-16T03:22:27.228Z,37.97
2022-11-16T03:24:54.875Z,40.80
2022-11-16T03:27:35.580Z,46.40
2022-11-16T03:30:13.886Z,44.67
2022-11-16T03:32:55.419Z,46.78
2022-11-16T03:35:24.853Z,49.00
2022-11-16T03:37:56.052Z,48.00
2022-11-16T03:40:28.114Z,53.53
2022-11-16T03:42:57.366Z,48.38
2022-11-16T03:45:25.064Z,50.72
2022-11-16T03:47:53.772Z,48.22
2022-11-16T03:50:22.120Z,48.25
2022-11-16T03:52:49.478Z,45.08
2022-11-16T03:55:16.970Z,49.22
2022-11-16T03:57:45.332Z,45.92
2022-11-16T04:00:13.144Z,52.58
2022-11-16T04:02:44.417Z,48.00
2022-11-16T04:05:36.743Z,45.45
2022-11-16T04:08:23.380Z,49.67
2022-11-16T04:11:09.536Z,45.80
2022-11-16T04:13:56.350Z,50.42
2022-11-16T04:16:42.301Z,51.35
2022-11-16T04:19:28.456Z,48.92
2022-11-16T04:22:25.748Z,48.22
2022-11-16T04:25:00.633Z,44.67
2022-11-16T04:27:48.297Z,51.05
2022-11-16T04:30:16.359Z,53.35
2022-11-16T04:33:02.290Z,55.63
2022-11-16T04:35:48.521Z,47.35
2022-11-16T04:38:15.994Z,49.83
2022-11-16T04:40:43.294Z,49.13
2022-11-16T04:43:12.973Z,47.20
2022-11-16T04:46:01.227Z,45.88
2022-11-16T04:48:36.105Z,49.65
2022-11-16T04:51:04.422Z,51.88
2022-11-16T04:53:32.942Z,50.67
2022-11-16T04:56:07.749Z,52.92
2022-11-16T04:58:35.505Z,53.50
2022-11-16T05:01:03.539Z,53.75
2022-11-16T05:03:31.164Z,55.55
2022-11-16T05:05:58.455Z,50.22
2022-11-16T05:08:26.201Z,49.40
2022-11-16T05:10:54.701Z,47.30
2022-11-16T05:13:22.051Z,42.85
2022-11-16T05:15:51.084Z,47.25
2022-11-16T05:18:18.361Z,46.72
2022-11-16T05:21:00.557Z,49.53
2022-11-16T05:23:49.376Z,46.47
2022-11-16T05:26:20.118Z,49.83
2022-11-16T05:28:48.223Z,47.67
2022-11-16T05:31:15.473Z,51.58
2022-11-16T05:33:42.838Z,42.92
2022-11-16T05:36:11.672Z,42.75
2022-11-16T05:38:39.832Z,39.75
2022-11-16T05:41:07.227Z,41.95
2022-11-16T05:43:35.336Z,39.17
2022-11-16T05:46:14.877Z,44.25
2022-11-16T05:48:42.299Z,38.78
2022-11-16T05:51:09.492Z,39.00
2022-11-16T05:53:36.740Z,39.13
2022-11-16T05:56:05.590Z,29.95
2022-11-16T06:01:03.933Z,22.77
2022-11-16T06:03:33.143Z,23.25
2022-11-16T06:06:00.772Z,23.60
2022-11-16T06:08:30.387Z,22.60
2022-11-16T06:13:32.478Z,18.05
2022-11-16T06:16:02.278Z,22.90
2022-11-16T06:18:31.889Z,23.83
2022-11-16T06:20:59.632Z,18.00
2022-11-16T06:23:26.832Z,20.77
2022-11-16T06:25:55.755Z,18.50
2022-11-16T06:28:26.170Z,16.42
2022-11-16T06:30:54.674Z,20.10
2022-11-16T06:33:24.565Z,15.60
2022-11-16T06:35:51.933Z,17.75
2022-11-16T06:38:23.793Z,20.48
2022-11-16T06:40:54.863Z,31.27
2022-11-16T06:43:25.561Z,28.10
2022-11-16T06:45:55.733Z,25.17
2022-11-16T06:48:23.248Z,21.88
2022-11-16T06:50:52.509Z,22.17
2022-11-16T06:53:27.528Z,23.33
2022-11-16T06:56:04.163Z,24.63
2022-11-16T06:58:35.375Z,26.60
2022-11-16T07:01:08.678Z,27.50
2022-11-16T07:03:39.133Z,27.05
2022-11-16T07:06:09.960Z,27.23
2022-11-16T07:08:40.249Z,26.33
2022-11-16T07:11:10.437Z,30.20
2022-11-16T07:13:39.251Z,30.60
2022-11-16T07:16:10.968Z,27.98
2022-11-16T07:18:42.846Z,31.30
2022-11-16T07:21:13.626Z,30.40
2022-11-16T07:23:42.928Z,30.65
2022-11-16T07:26:13.613Z,29.90
2022-11-16T07:28:48.603Z,27.75
2022-11-16T07:31:20.095Z,33.15
2022-11-16T07:33:48.023Z,34.50
2022-11-16T07:36:42.443Z,31.95
2022-11-16T07:39:10.793Z,30.75
2022-11-16T07:41:39.188Z,32.00
2022-11-16T07:44:16.321Z,34.65
2022-11-16T07:46:47.133Z,34.08
2022-11-16T07:49:18.322Z,33.85
2022-11-16T07:51:58.856Z,32.08
2022-11-16T07:54:42.933Z,32.90
2022-11-16T07:57:10.346Z,33.72
2022-11-16T07:59:40.615Z,33.10
2022-11-16T08:02:10.412Z,30.50
2022-11-16T08:04:39.991Z,33.90
2022-11-16T08:07:08.918Z,31.33
2022-11-16T08:09:43.468Z,36.00
2022-11-16T08:12:15.549Z,31.08
2022-11-16T08:14:44.270Z,34.70
2022-11-16T08:17:13.946Z,31.73
2022-11-16T08:19:43.110Z,27.20
2022-11-16T08:22:13.940Z,29.10
2022-11-16T08:24:42.808Z,23.95
2022-11-16T08:27:10.729Z,27.90
2022-11-16T08:29:38.719Z,24.58
2022-11-16T08:32:09.953Z,26.50
2022-11-16T08:34:38.609Z,23.25
2022-11-16T08:37:07.679Z,23.23
2022-11-16T08:39:40.770Z,22.10
2022-11-16T08:42:11.359Z,22.80
2022-11-16T08:44:41.251Z,20.92
2022-11-16T08:47:14.480Z,22.15
2022-11-16T08:49:49.832Z,19.10
2022-11-16T08:52:21.259Z,16.83
2022-11-16T08:54:51.130Z,15.40
2022-11-16T08:57:19.440Z,16.63
2022-11-16T08:59:52.769Z,14.60
2022-11-16T09:02:25.911Z,13.20
2022-11-16T09:04:55.360Z,15.77
2022-11-16T09:07:23.305Z,11.70
2022-11-16T09:09:51.659Z,9.55
2022-11-16T09:12:20.568Z,9.00
2022-11-16T09:14:50.359Z,12.88
2022-11-16T09:17:22.998Z,9.25
2022-11-16T09:19:51.619Z,7.72
2022-11-16T09:22:19.818Z,8.68
2022-11-16T09:24:47.528Z,6.60
2022-11-16T09:27:15.689Z,6.80
2022-11-16T09:29:43.759Z,7.03
2022-11-16T09:32:11.838Z,6.03
2022-11-16T09:34:39.651Z,6.88
2022-11-16T09:37:08.702Z,4.25
2022-11-16T09:39:36.439Z,5.13
2022-11-16T09:42:38.829Z,5.72
2022-11-16T09:45:17.899Z,5.70
2022-11-16T09:47:52.491Z,8.75
2022-11-16T09:50:45.579Z,6.88
2022-11-16T09:53:19.058Z,8.50
2022-11-16T09:55:53.185Z,6.40
2022-11-16T09:58:50.899Z,7.50
2022-11-16T10:01:27.832Z,9.35
2022-11-16T10:04:03.200Z,11.45
2022-11-16T10:06:57.968Z,11.43
2022-11-16T10:09:26.179Z,11.70
2022-11-16T10:12:15.406Z,12.85
2022-11-16T10:15:28.817Z,11.25
2022-11-16T10:18:28.118Z,11.18
2022-11-16T10:21:10.407Z,11.20
2022-11-16T10:23:55.225Z,9.27
2022-11-16T10:26:47.452Z,6.85
2022-11-16T10:29:23.178Z,8.75
2022-11-16T10:32:00.785Z,10.77
2022-11-16T10:34:43.055Z,8.13
2022-11-16T10:37:13.603Z,9.57
2022-11-16T10:39:41.612Z,10.70
2022-11-16T10:42:16.382Z,6.65
2022-11-16T10:44:51.302Z,7.15
2022-11-16T10:47:24.781Z,6.28
2022-11-16T10:50:04.091Z,6.78
2022-11-16T10:52:32.477Z,5.88
2022-11-16T10:54:59.888Z,6.15
2022-11-16T10:57:57.405Z,7.82
2022-11-16T11:00:48.003Z,5.07
2022-11-16T11:03:15.937Z,6.75
2022-11-16T11:05:54.016Z,4.45
2022-11-16T11:08:30.797Z,7.18
2022-11-16T11:11:25.530Z,8.57
2022-11-16T11:14:19.263Z,4.22
2022-11-16T11:16:46.747Z,3.20
2022-11-16T11:19:28.514Z,4.72
2022-11-16T11:22:00.484Z,4.95
2022-11-16T11:24:43.851Z,3.22
2022-11-16T11:27:12.002Z,7.20
2022-11-16T11:29:43.185Z,5.00
2022-11-16T11:32:24.166Z,6.20
2022-11-16T11:34:56.729Z,6.90
2022-11-16T11:37:26.837Z,5.57
2022-11-16T11:40:23.348Z,6.38
2022-11-16T11:43:02.726Z,7.63
2022-11-16T11:45:45.375Z,4.57
2022-11-16T11:48:12.642Z,8.93
2022-11-16T11:50:53.974Z,10.27
2022-11-16T11:53:38.036Z,9.38
2022-11-16T11:56:05.953Z,7.53
2022-11-16T11:58:37.661Z,5.80
2022-11-16T12:01:30.696Z,6.65
2022-11-16T12:04:07.205Z,5.97
2022-11-16T12:06:43.613Z,10.60
2022-11-16T12:09:27.965Z,7.65
2022-11-16T12:12:32.904Z,6.90
2022-11-16T12:15:05.985Z,8.68
2022-11-16T12:17:50.471Z,5.32
2022-11-16T12:20:31.426Z,6.18
2022-11-16T12:23:28.333Z,4.88
2022-11-16T12:26:27.462Z,3.85
2022-11-16T12:29:02.678Z,5.88
2022-11-16T12:31:51.516Z,7.13
2022-11-16T12:34:37.434Z,4.95
2022-11-16T12:37:11.498Z,7.55
2022-11-16T12:40:15.289Z,5.35
2022-11-16T12:42:55.601Z,3.72
2022-11-16T12:45:32.268Z,4.85
2022-11-16T12:48:21.864Z,5.35
2022-11-16T12:51:14.364Z,4.05
2022-11-16T12:54:06.140Z,4.22
2022-11-16T12:56:47.454Z,4.75
2022-11-16T12:59:42.645Z,5.75
2022-11-16T13:03:00.959Z,5.28
2022-11-16T13:05:43.300Z,5.45
2022-11-16T13:08:56.457Z,4.30
2022-11-16T13:11:28.286Z,6.50
2022-11-16T13:14:03.850Z,7.57
2022-11-16T13:16:31.790Z,6.90
2022-11-16T13:19:01.252Z,6.70
2022-11-16T13:22:00.319Z,6.03
2022-11-16T13:24:39.309Z,6.15
2022-11-16T13:27:28.920Z,9.43
2022-11-16T13:30:18.791Z,5.80
2022-11-16T13:33:23.082Z,6.55
2022-11-16T13:35:51.902Z,5.65
2022-11-16T13:38:53.217Z,5.68
2022-11-16T13:41:37.827Z,5.95
2022-11-16T13:44:20.376Z,7.10
2022-11-16T13:46:56.961Z,4.13
2022-11-16T13:49:34.377Z,5.10
2022-11-16T13:52:22.035Z,4.53
2022-11-16T13:54:54.166Z,4.00
2022-11-16T13:57:22.143Z,4.03
2022-11-16T14:00:08.999Z,4.20
2022-11-16T14:02:42.754Z,4.30
2022-11-16T14:05:12.917Z,3.70
2022-11-16T14:07:47.494Z,4.07
2022-11-16T14:10:35.250Z,4.90
2022-11-16T14:13:04.722Z,5.07
2022-11-16T14:15:33.565Z,5.20
2022-11-16T14:18:21.068Z,6.47
2022-11-16T14:21:27.252Z,8.02
2022-11-16T14:24:36.523Z,7.35
2022-11-16T14:27:31.711Z,7.03
2022-11-16T14:30:25.210Z,9.13
2022-11-16T14:32:56.240Z,6.28
2022-11-16T14:35:29.024Z,6.70
2022-11-16T14:38:05.815Z,6.22
2022-11-16T14:40:53.565Z,6.55
2022-11-16T14:43:31.732Z,5.95
2022-11-16T14:46:07.358Z,6.93
2022-11-16T14:48:42.508Z,5.68
2022-11-16T14:51:33.479Z,5.78
2022-11-16T14:54:16.758Z,7.13
2022-11-16T14:57:01.761Z,7.18
2022-11-16T14:59:30.639Z,5.32
2022-11-16T15:02:01.463Z,5.13
2022-11-16T15:04:30.302Z,6.30
2022-11-16T15:07:02.716Z,5.90
2022-11-16T15:09:42.181Z,5.72
2022-11-16T15:12:35.288Z,6.10
2022-11-16T15:15:15.753Z,6.15
2022-11-16T15:17:52.183Z,6.35
2022-11-16T15:20:23.739Z,6.82
2022-11-16T15:22:53.504Z,5.88
2022-11-16T15:25:53.903Z,7.13
2022-11-16T15:30:56.109Z,5.43
2022-11-16T15:33:27.582Z,6.60
2022-11-16T15:35:55.974Z,6.95
2022-11-16T15:38:33.826Z,5.85
2022-11-16T15:41:05.487Z,6.75
2022-11-16T15:43:49.560Z,6.13
2022-11-16T15:46:24.757Z,6.63
2022-11-16T15:48:53.674Z,5.90
2022-11-16T15:51:31.416Z,5.22
2022-11-16T15:54:25.503Z,5.70
2022-11-16T15:56:57.026Z,6.57
2022-11-16T15:59:31.810Z,5.95
2022-11-16T16:01:59.613Z,8.82
2022-11-16T16:04:29.171Z,8.30
2022-11-16T16:07:00.969Z,14.15
2022-11-16T16:09:39.115Z,20.30
2022-11-16T16:12:22.032Z,14.80
2022-11-16T16:14:51.014Z,13.25
2022-11-16T16:17:29.950Z,11.75
2022-11-16T16:20:02.819Z,11.88
2022-11-16T16:22:33.348Z,11.38
2022-11-16T16:25:01.869Z,9.25
2022-11-16T16:27:31.008Z,8.80
2022-11-16T16:30:04.426Z,7.72
2022-11-16T16:32:34.296Z,8.90
2022-11-16T16:35:04.188Z,9.05
2022-11-16T16:37:33.430Z,7.88
2022-11-16T16:40:00.855Z,9.47
2022-11-16T16:42:28.410Z,15.80
2022-11-16T16:44:55.781Z,14.05
2022-11-16T16:47:23.119Z,12.02
2022-11-16T16:49:50.570Z,10.73
2022-11-16T16:52:18.364Z,10.63
2022-11-16T16:54:45.721Z,14.23
2022-11-16T16:57:17.510Z,15.57
2022-11-16T16:59:45.923Z,11.13
2022-11-16T17:02:13.330Z,6.13
2022-11-16T17:04:41.522Z,5.28
2022-11-16T17:07:08.945Z,3.92
2022-11-16T17:09:36.326Z,4.40
2022-11-16T17:12:03.904Z,4.90
2022-11-16T17:14:32.375Z,4.90
2022-11-16T17:17:00.370Z,4.82
2022-11-16T17:19:30.832Z,6.15
2022-11-16T17:21:58.570Z,6.75
2022-11-16T17:24:26.101Z,5.68
2022-11-16T17:26:53.787Z,5.28
2022-11-16T17:29:21.144Z,6.97
2022-11-16T17:31:48.445Z,10.82
2022-11-16T17:34:16.080Z,15.07
2022-11-16T17:36:43.877Z,21.98
2022-11-16T17:39:11.465Z,23.77
2022-11-16T17:41:38.854Z,20.05
2022-11-16T17:44:06.719Z,20.73
2022-11-16T17:46:34.028Z,25.67
2022-11-16T17:49:01.983Z,12.32
2022-11-16T17:51:32.757Z,8.23
2022-11-16T17:54:00.233Z,9.35
2022-11-16T17:56:28.645Z,9.57
2022-11-16T17:58:58.652Z,8.88
2022-11-16T18:01:27.412Z,9.77
2022-11-16T18:03:55.399Z,26.65
2022-11-16T18:06:25.870Z,24.85
2022-11-16T18:08:54.639Z,22.42
2022-11-16T18:11:24.603Z,17.95
2022-11-16T18:13:55.329Z,11.30
2022-11-16T18:16:26.079Z,9.43
2022-11-16T18:18:58.413Z,7.78
2022-11-16T18:21:26.818Z,8.50
2022-11-16T18:23:54.325Z,10.25
2022-11-16T18:26:23.909Z,10.43
2022-11-16T18:28:52.753Z,11.13
2022-11-16T18:31:22.351Z,12.10
2022-11-16T18:33:50.560Z,15.10
2022-11-16T18:36:20.159Z,23.30
2022-11-16T18:38:48.118Z,14.20
2022-11-16T18:41:21.238Z,17.40
2022-11-16T18:43:53.044Z,13.20
2022-11-16T18:46:21.724Z,19.08
2022-11-16T18:48:50.534Z,29.90
2022-11-16T18:51:19.420Z,19.23
2022-11-16T18:53:47.388Z,22.10
2022-11-16T18:56:15.452Z,27.80
2022-11-16T18:58:52.250Z,26.35
2022-11-16T19:01:22.961Z,25.98
2022-11-16T19:06:19.040Z,21.05
2022-11-16T19:08:53.655Z,15.05
2022-11-16T19:11:23.610Z,21.48
2022-11-16T19:13:56.715Z,21.38
2022-11-16T19:16:25.197Z,22.83
2022-11-16T19:18:53.420Z,26.10
2022-11-16T19:21:22.212Z,22.48
2022-11-16T19:23:53.937Z,27.58
2022-11-16T19:26:23.718Z,32.17
2022-11-16T19:28:52.212Z,24.42
2022-11-16T19:31:22.342Z,23.90
2022-11-16T19:33:58.011Z,20.55
2022-11-16T19:36:26.763Z,19.67
2022-11-16T19:38:54.215Z,18.42
2022-11-16T19:41:22.796Z,20.10
2022-11-16T19:43:53.097Z,22.65
2022-11-16T19:46:22.625Z,19.48
2022-11-16T19:48:50.977Z,20.17
2022-11-16T19:51:19.725Z,16.00
2022-11-16T19:53:48.642Z,12.02
2022-11-16T19:56:19.180Z,12.55
2022-11-16T20:01:28.243Z,12.27
2022-11-16T20:03:58.686Z,13.38
2022-11-16T20:06:29.546Z,12.90
2022-11-16T20:09:01.335Z,13.73
2022-11-16T20:11:34.855Z,10.93
2022-11-16T20:14:05.655Z,9.80
2022-11-16T20:16:39.222Z,13.77
2022-11-16T20:19:11.255Z,13.07
2022-11-16T20:21:41.185Z,11.48
2022-11-16T20:24:13.016Z,11.90
2022-11-16T20:26:46.538Z,13.15
2022-11-16T20:29:17.520Z,8.98
2022-11-16T20:31:46.765Z,11.85
2022-11-16T20:34:17.084Z,13.37
2022-11-16T20:39:17.144Z,12.37
2022-11-16T20:41:45.916Z,10.75
2022-11-16T20:44:18.534Z,12.23
2022-11-16T20:46:46.843Z,9.68
2022-11-16T20:49:15.034Z,12.70
2022-11-16T20:51:42.884Z,10.57
2022-11-16T20:54:10.755Z,12.05
2022-11-16T20:56:39.025Z,7.80
2022-11-16T20:59:06.944Z,11.15
2022-11-16T21:01:35.392Z,10.88
2022-11-16T21:04:06.355Z,9.77
2022-11-16T21:06:34.624Z,14.80
2022-11-16T21:09:02.838Z,15.85
2022-11-16T21:11:52.285Z,11.32
2022-11-16T21:14:21.164Z,7.80
2022-11-16T21:16:49.529Z,8.93
2022-11-16T21:19:18.395Z,12.63
2022-11-16T21:21:45.953Z,11.07
2022-11-16T21:24:15.248Z,8.35
2022-11-16T21:26:43.053Z,10.07
2022-11-16T21:29:11.075Z,11.50
2022-11-16T21:31:38.816Z,7.50
2022-11-16T21:34:07.984Z,12.25
2022-11-16T21:36:37.050Z,11.55
2022-11-16T21:39:04.914Z,14.25
2022-11-16T21:41:32.775Z,11.98
2022-11-16T21:44:01.046Z,11.95
2022-11-16T21:46:28.965Z,8.38
2022-11-16T21:48:57.177Z,9.48
2022-11-16T21:51:27.537Z,11.50
2022-11-16T21:56:25.214Z,9.80
2022-11-16T21:58:54.781Z,9.02
2022-11-16T22:01:24.295Z,8.70
2022-11-16T22:04:11.241Z,8.60
2022-11-16T22:06:57.951Z,8.40
2022-11-16T22:09:25.846Z,7.10
2022-11-16T22:11:54.270Z,6.80
2022-11-16T22:14:22.420Z,8.57
2022-11-16T22:16:50.119Z,7.38
2022-11-16T22:19:17.959Z,7.97
2022-11-16T22:21:46.090Z,7.93
2022-11-16T22:24:14.030Z,7.50
2022-11-16T22:26:42.671Z,7.70
2022-11-16T22:29:10.951Z,6.97
2022-11-16T22:31:39.171Z,6.75
2022-11-16T22:34:07.390Z,7.10
2022-11-16T22:36:35.500Z,8.15
2022-11-16T22:39:03.712Z,7.53
2022-11-16T22:41:31.722Z,6.63
2022-11-16T22:43:59.700Z,10.10
2022-11-16T22:46:27.791Z,8.20
2022-11-16T22:48:55.920Z,8.38
2022-11-16T22:51:25.991Z,6.15
2022-11-16T22:54:02.915Z,8.00
2022-11-16T22:56:33.415Z,7.13
2022-11-16T22:59:03.171Z,8.25
2022-11-16T23:01:31.255Z,7.68
2022-11-16T23:03:59.151Z,8.68
2022-11-16T23:06:26.806Z,8.35
2022-11-16T23:08:54.614Z,8.50
2022-11-16T23:11:43.429Z,11.75
2022-11-16T23:14:32.159Z,8.23
2022-11-16T23:17:00.235Z,9.10
2022-11-16T23:19:46.788Z,8.98
2022-11-16T23:22:38.972Z,7.57
2022-11-16T23:25:28.416Z,9.13
2022-11-16T23:27:59.133Z,8.10
2022-11-16T23:30:26.904Z,8.23
2022-11-16T23:32:54.660Z,8.18
2022-11-16T23:35:22.810Z,9.02
2022-11-16T23:38:08.760Z,7.95
2022-11-16T23:40:39.469Z,9.13
2022-11-16T23:43:28.354Z,8.88
2022-11-16T23:45:55.927Z,9.40
2022-11-16T23:48:23.375Z,8.73
2022-11-16T23:50:50.866Z,8.40
2022-11-16T23:53:18.614Z,9.70
2022-11-16T23:55:46.276Z,7.35
2022-11-16T23:58:15.301Z,10.70
